sensor_id;sensor_type;location;lat;lon;timestamp;P1;durP1;ratioP1;P2;durP2;ratioP2
52786;SDS011;38661;53.152;5.846;2023-05-07T00:00:11;23.30;;;20.80;;
52786;SDS011;38661;53.152;5.846;2023-05-07T00:02:40;24.75;;;19.90;;
52786;SDS011;38661;53.152;5.846;2023-05-07T00:05:06;27.27;;;21.27;;
52786;SDS011;38661;53.152;5.846;2023-05-07T00:07:32;22.67;;;20.20;;
52786;SDS011;38661;53.152;5.846;2023-05-07T00:09:58;21.88;;;19.48;;
52786;SDS011;38661;53.152;5.846;2023-05-07T00:12:23;24.73;;;21.08;;
52786;SDS011;38661;53.152;5.846;2023-05-07T00:14:49;22.02;;;19.38;;
52786;SDS011;38661;53.152;5.846;2023-05-07T00:17:15;19.02;;;17.00;;
52786;SDS011;38661;53.152;5.846;2023-05-07T00:19:40;22.95;;;20.08;;
52786;SDS011;38661;53.152;5.846;2023-05-07T00:22:06;26.67;;;19.90;;
52786;SDS011;38661;53.152;5.846;2023-05-07T00:24:33;25.42;;;20.88;;
52786;SDS011;38661;53.152;5.846;2023-05-07T00:26:59;27.35;;;22.00;;
52786;SDS011;38661;53.152;5.846;2023-05-07T00:29:25;21.50;;;18.77;;
52786;SDS011;38661;53.152;5.846;2023-05-07T00:31:51;26.63;;;20.65;;
52786;SDS011;38661;53.152;5.846;2023-05-07T00:34:18;25.17;;;20.27;;
52786;SDS011;38661;53.152;5.846;2023-05-07T00:36:45;27.77;;;22.35;;
52786;SDS011;38661;53.152;5.846;2023-05-07T00:39:10;23.73;;;19.73;;
52786;SDS011;38661;53.152;5.846;2023-05-07T00:41:36;25.95;;;20.60;;
52786;SDS011;38661;53.152;5.846;2023-05-07T00:44:02;28.13;;;22.13;;
52786;SDS011;38661;53.152;5.846;2023-05-07T00:46:27;22.45;;;18.63;;
52786;SDS011;38661;53.152;5.846;2023-05-07T00:48:55;26.33;;;20.08;;
52786;SDS011;38661;53.152;5.846;2023-05-07T00:51:22;27.23;;;21.60;;
52786;SDS011;38661;53.152;5.846;2023-05-07T00:53:49;22.50;;;17.33;;
52786;SDS011;38661;53.152;5.846;2023-05-07T00:56:15;27.08;;;19.95;;
52786;SDS011;38661;53.152;5.846;2023-05-07T00:58:41;26.13;;;19.63;;
52786;SDS011;38661;53.152;5.846;2023-05-07T01:01:08;24.17;;;19.58;;
52786;SDS011;38661;53.152;5.846;2023-05-07T01:03:33;25.15;;;19.67;;
52786;SDS011;38661;53.152;5.846;2023-05-07T01:05:59;26.33;;;20.95;;
52786;SDS011;38661;53.152;5.846;2023-05-07T01:08:26;24.67;;;19.50;;
52786;SDS011;38661;53.152;5.846;2023-05-07T01:10:55;24.55;;;20.33;;
52786;SDS011;38661;53.152;5.846;2023-05-07T01:13:21;26.00;;;19.60;;
52786;SDS011;38661;53.152;5.846;2023-05-07T01:15:47;29.08;;;21.92;;
52786;SDS011;38661;53.152;5.846;2023-05-07T01:18:13;25.48;;;19.95;;
52786;SDS011;38661;53.152;5.846;2023-05-07T01:20:40;20.35;;;17.42;;
52786;SDS011;38661;53.152;5.846;2023-05-07T01:23:06;23.20;;;19.77;;
52786;SDS011;38661;53.152;5.846;2023-05-07T01:25:32;25.23;;;20.80;;
52786;SDS011;38661;53.152;5.846;2023-05-07T01:27:58;26.58;;;20.08;;
52786;SDS011;38661;53.152;5.846;2023-05-07T01:30:27;23.88;;;20.33;;
52786;SDS011;38661;53.152;5.846;2023-05-07T01:35:24;24.85;;;19.63;;
52786;SDS011;38661;53.152;5.846;2023-05-07T01:37:54;24.10;;;18.27;;
52786;SDS011;38661;53.152;5.846;2023-05-07T01:40:20;23.55;;;19.30;;
52786;SDS011;38661;53.152;5.846;2023-05-07T01:42:46;25.50;;;20.48;;
52786;SDS011;38661;53.152;5.846;2023-05-07T01:45:13;27.02;;;20.08;;
52786;SDS011;38661;53.152;5.846;2023-05-07T01:47:39;27.85;;;22.25;;
52786;SDS011;38661;53.152;5.846;2023-05-07T01:50:06;27.38;;;22.05;;
52786;SDS011;38661;53.152;5.846;2023-05-07T01:52:33;27.27;;;23.15;;
52786;SDS011;38661;53.152;5.846;2023-05-07T01:54:59;23.83;;;20.10;;
52786;SDS011;38661;53.152;5.846;2023-05-07T01:57:25;30.48;;;23.52;;
52786;SDS011;38661;53.152;5.846;2023-05-07T01:59:51;32.45;;;24.63;;
52786;SDS011;38661;53.152;5.846;2023-05-07T02:02:16;30.25;;;22.40;;
52786;SDS011;38661;53.152;5.846;2023-05-07T02:05:00;34.42;;;24.17;;
52786;SDS011;38661;53.152;5.846;2023-05-07T02:07:26;32.65;;;24.50;;
52786;SDS011;38661;53.152;5.846;2023-05-07T02:09:53;25.83;;;20.10;;
52786;SDS011;38661;53.152;5.846;2023-05-07T02:12:20;30.27;;;24.33;;
52786;SDS011;38661;53.152;5.846;2023-05-07T02:14:46;31.35;;;24.85;;
52786;SDS011;38661;53.152;5.846;2023-05-07T02:17:12;35.45;;;25.92;;
52786;SDS011;38661;53.152;5.846;2023-05-07T02:19:38;30.67;;;25.73;;
52786;SDS011;38661;53.152;5.846;2023-05-07T02:22:03;34.03;;;26.20;;
52786;SDS011;38661;53.152;5.846;2023-05-07T02:24:29;30.95;;;23.52;;
52786;SDS011;38661;53.152;5.846;2023-05-07T02:26:55;34.03;;;25.00;;
52786;SDS011;38661;53.152;5.846;2023-05-07T02:29:20;34.72;;;26.33;;
52786;SDS011;38661;53.152;5.846;2023-05-07T02:31:46;36.50;;;25.88;;
52786;SDS011;38661;53.152;5.846;2023-05-07T02:34:16;33.92;;;26.63;;
52786;SDS011;38661;53.152;5.846;2023-05-07T02:36:42;32.10;;;25.55;;
52786;SDS011;38661;53.152;5.846;2023-05-07T02:39:08;33.80;;;26.15;;
52786;SDS011;38661;53.152;5.846;2023-05-07T02:41:33;36.05;;;28.13;;
52786;SDS011;38661;53.152;5.846;2023-05-07T02:43:59;38.65;;;27.23;;
52786;SDS011;38661;53.152;5.846;2023-05-07T02:46:25;33.03;;;25.23;;
52786;SDS011;38661;53.152;5.846;2023-05-07T02:48:51;31.17;;;24.05;;
52786;SDS011;38661;53.152;5.846;2023-05-07T02:51:20;34.72;;;27.83;;
52786;SDS011;38661;53.152;5.846;2023-05-07T02:53:47;40.03;;;28.92;;
52786;SDS011;38661;53.152;5.846;2023-05-07T02:56:12;34.70;;;27.10;;
52786;SDS011;38661;53.152;5.846;2023-05-07T02:58:38;39.45;;;29.25;;
52786;SDS011;38661;53.152;5.846;2023-05-07T03:01:04;32.92;;;27.13;;
52786;SDS011;38661;53.152;5.846;2023-05-07T03:03:30;32.58;;;26.80;;
52786;SDS011;38661;53.152;5.846;2023-05-07T03:05:56;34.63;;;27.23;;
52786;SDS011;38661;53.152;5.846;2023-05-07T03:08:22;35.35;;;27.05;;
52786;SDS011;38661;53.152;5.846;2023-05-07T03:10:48;27.70;;;22.13;;
52786;SDS011;38661;53.152;5.846;2023-05-07T03:13:13;32.53;;;27.20;;
52786;SDS011;38661;53.152;5.846;2023-05-07T03:15:39;37.50;;;29.42;;
52786;SDS011;38661;53.152;5.846;2023-05-07T03:18:05;37.38;;;29.80;;
52786;SDS011;38661;53.152;5.846;2023-05-07T03:20:31;33.78;;;27.92;;
52786;SDS011;38661;53.152;5.846;2023-05-07T03:22:57;36.17;;;29.10;;
52786;SDS011;38661;53.152;5.846;2023-05-07T03:25:22;31.77;;;26.98;;
52786;SDS011;38661;53.152;5.846;2023-05-07T03:27:48;27.73;;;21.95;;
52786;SDS011;38661;53.152;5.846;2023-05-07T03:30:14;36.65;;;28.23;;
52786;SDS011;38661;53.152;5.846;2023-05-07T03:32:39;34.47;;;29.45;;
52786;SDS011;38661;53.152;5.846;2023-05-07T03:35:05;36.70;;;27.50;;
52786;SDS011;38661;53.152;5.846;2023-05-07T03:37:32;36.40;;;29.00;;
52786;SDS011;38661;53.152;5.846;2023-05-07T03:39:57;35.20;;;28.00;;
52786;SDS011;38661;53.152;5.846;2023-05-07T03:42:23;36.15;;;30.23;;
52786;SDS011;38661;53.152;5.846;2023-05-07T03:44:49;36.25;;;27.15;;
52786;SDS011;38661;53.152;5.846;2023-05-07T03:47:15;38.33;;;29.13;;
52786;SDS011;38661;53.152;5.846;2023-05-07T03:49:40;41.75;;;30.30;;
52786;SDS011;38661;53.152;5.846;2023-05-07T03:52:06;38.45;;;28.73;;
52786;SDS011;38661;53.152;5.846;2023-05-07T03:54:32;39.03;;;30.30;;
52786;SDS011;38661;53.152;5.846;2023-05-07T03:56:58;36.60;;;27.45;;
52786;SDS011;38661;53.152;5.846;2023-05-07T03:59:23;39.42;;;31.33;;
52786;SDS011;38661;53.152;5.846;2023-05-07T04:01:49;38.30;;;30.52;;
52786;SDS011;38661;53.152;5.846;2023-05-07T04:04:15;37.63;;;29.52;;
52786;SDS011;38661;53.152;5.846;2023-05-07T04:06:41;39.08;;;29.25;;
52786;SDS011;38661;53.152;5.846;2023-05-07T04:09:07;39.95;;;30.02;;
52786;SDS011;38661;53.152;5.846;2023-05-07T04:11:32;38.60;;;30.00;;
52786;SDS011;38661;53.152;5.846;2023-05-07T04:13:58;37.20;;;27.83;;
52786;SDS011;38661;53.152;5.846;2023-05-07T04:16:24;36.80;;;28.35;;
52786;SDS011;38661;53.152;5.846;2023-05-07T04:18:50;43.63;;;31.13;;
52786;SDS011;38661;53.152;5.846;2023-05-07T04:21:19;43.05;;;32.75;;
52786;SDS011;38661;53.152;5.846;2023-05-07T04:23:46;40.20;;;31.13;;
52786;SDS011;38661;53.152;5.846;2023-05-07T04:26:12;34.30;;;26.85;;
52786;SDS011;38661;53.152;5.846;2023-05-07T04:28:38;41.03;;;32.45;;
52786;SDS011;38661;53.152;5.846;2023-05-07T04:31:04;40.22;;;29.45;;
52786;SDS011;38661;53.152;5.846;2023-05-07T04:33:33;37.05;;;29.33;;
52786;SDS011;38661;53.152;5.846;2023-05-07T04:36:02;36.08;;;31.23;;
52786;SDS011;38661;53.152;5.846;2023-05-07T04:38:32;41.97;;;31.75;;
52786;SDS011;38661;53.152;5.846;2023-05-07T04:41:04;38.95;;;30.83;;
52786;SDS011;38661;53.152;5.846;2023-05-07T04:43:31;42.60;;;29.75;;
52786;SDS011;38661;53.152;5.846;2023-05-07T04:45:56;43.00;;;32.40;;
52786;SDS011;38661;53.152;5.846;2023-05-07T04:48:22;43.70;;;33.05;;
52786;SDS011;38661;53.152;5.846;2023-05-07T04:50:48;44.45;;;33.33;;
52786;SDS011;38661;53.152;5.846;2023-05-07T04:53:14;42.28;;;31.73;;
52786;SDS011;38661;53.152;5.846;2023-05-07T04:55:40;43.38;;;32.05;;
52786;SDS011;38661;53.152;5.846;2023-05-07T04:58:07;45.80;;;33.28;;
52786;SDS011;38661;53.152;5.846;2023-05-07T05:00:33;40.20;;;29.90;;
52786;SDS011;38661;53.152;5.846;2023-05-07T05:02:59;40.70;;;32.65;;
52786;SDS011;38661;53.152;5.846;2023-05-07T05:05:25;41.97;;;31.45;;
52786;SDS011;38661;53.152;5.846;2023-05-07T05:07:51;44.17;;;30.33;;
52786;SDS011;38661;53.152;5.846;2023-05-07T05:10:17;50.30;;;34.83;;
52786;SDS011;38661;53.152;5.846;2023-05-07T05:12:42;40.88;;;29.58;;
52786;SDS011;38661;53.152;5.846;2023-05-07T05:15:10;38.13;;;28.80;;
52786;SDS011;38661;53.152;5.846;2023-05-07T05:17:37;42.22;;;32.60;;
52786;SDS011;38661;53.152;5.846;2023-05-07T05:20:03;45.45;;;31.83;;
52786;SDS011;38661;53.152;5.846;2023-05-07T05:22:30;45.67;;;32.70;;
52786;SDS011;38661;53.152;5.846;2023-05-07T05:24:56;45.97;;;34.08;;
52786;SDS011;38661;53.152;5.846;2023-05-07T05:27:22;46.38;;;35.70;;
52786;SDS011;38661;53.152;5.846;2023-05-07T05:29:48;44.42;;;32.97;;
52786;SDS011;38661;53.152;5.846;2023-05-07T05:32:13;45.30;;;33.05;;
52786;SDS011;38661;53.152;5.846;2023-05-07T05:34:39;44.20;;;33.60;;
52786;SDS011;38661;53.152;5.846;2023-05-07T05:37:05;46.95;;;34.90;;
52786;SDS011;38661;53.152;5.846;2023-05-07T05:39:31;38.67;;;28.50;;
52786;SDS011;38661;53.152;5.846;2023-05-07T05:41:56;49.20;;;36.03;;
52786;SDS011;38661;53.152;5.846;2023-05-07T05:44:22;46.80;;;33.67;;
52786;SDS011;38661;53.152;5.846;2023-05-07T05:46:48;48.17;;;35.75;;
52786;SDS011;38661;53.152;5.846;2023-05-07T05:49:14;45.65;;;33.90;;
52786;SDS011;38661;53.152;5.846;2023-05-07T05:51:40;51.88;;;37.05;;
52786;SDS011;38661;53.152;5.846;2023-05-07T05:54:06;46.72;;;36.22;;
52786;SDS011;38661;53.152;5.846;2023-05-07T05:56:32;50.17;;;34.40;;
52786;SDS011;38661;53.152;5.846;2023-05-07T05:58:58;42.40;;;30.85;;
52786;SDS011;38661;53.152;5.846;2023-05-07T06:01:24;46.85;;;34.15;;
52786;SDS011;38661;53.152;5.846;2023-05-07T06:03:50;42.30;;;31.05;;
52786;SDS011;38661;53.152;5.846;2023-05-07T06:06:17;38.17;;;28.80;;
52786;SDS011;38661;53.152;5.846;2023-05-07T06:08:42;43.47;;;34.28;;
52786;SDS011;38661;53.152;5.846;2023-05-07T06:11:08;43.03;;;31.33;;
52786;SDS011;38661;53.152;5.846;2023-05-07T06:13:34;44.45;;;29.52;;
52786;SDS011;38661;53.152;5.846;2023-05-07T06:16:00;41.67;;;32.80;;
52786;SDS011;38661;53.152;5.846;2023-05-07T06:18:25;39.17;;;27.83;;
52786;SDS011;38661;53.152;5.846;2023-05-07T06:20:51;41.47;;;32.83;;
52786;SDS011;38661;53.152;5.846;2023-05-07T06:23:18;45.25;;;31.98;;
52786;SDS011;38661;53.152;5.846;2023-05-07T06:25:49;42.63;;;31.73;;
52786;SDS011;38661;53.152;5.846;2023-05-07T06:28:15;39.03;;;31.08;;
52786;SDS011;38661;53.152;5.846;2023-05-07T06:30:41;43.25;;;31.73;;
52786;SDS011;38661;53.152;5.846;2023-05-07T06:33:07;42.97;;;31.17;;
52786;SDS011;38661;53.152;5.846;2023-05-07T06:35:33;36.78;;;28.83;;
52786;SDS011;38661;53.152;5.846;2023-05-07T06:37:59;37.97;;;28.90;;
52786;SDS011;38661;53.152;5.846;2023-05-07T06:40:25;41.45;;;29.63;;
52786;SDS011;38661;53.152;5.846;2023-05-07T06:42:51;34.03;;;27.00;;
52786;SDS011;38661;53.152;5.846;2023-05-07T06:45:17;37.67;;;29.30;;
52786;SDS011;38661;53.152;5.846;2023-05-07T06:47:42;36.92;;;28.83;;
52786;SDS011;38661;53.152;5.846;2023-05-07T06:50:08;38.15;;;28.35;;
52786;SDS011;38661;53.152;5.846;2023-05-07T06:52:34;34.75;;;26.60;;
52786;SDS011;38661;53.152;5.846;2023-05-07T06:55:00;40.42;;;29.30;;
52786;SDS011;38661;53.152;5.846;2023-05-07T06:57:26;36.83;;;29.35;;
52786;SDS011;38661;53.152;5.846;2023-05-07T06:59:52;39.88;;;29.98;;
52786;SDS011;38661;53.152;5.846;2023-05-07T07:02:18;40.30;;;29.17;;
52786;SDS011;38661;53.152;5.846;2023-05-07T07:04:43;39.25;;;30.95;;
52786;SDS011;38661;53.152;5.846;2023-05-07T07:07:10;35.88;;;29.23;;
52786;SDS011;38661;53.152;5.846;2023-05-07T07:09:36;34.40;;;28.63;;
52786;SDS011;38661;53.152;5.846;2023-05-07T07:12:02;33.72;;;28.20;;
52786;SDS011;38661;53.152;5.846;2023-05-07T07:14:27;33.25;;;27.00;;
52786;SDS011;38661;53.152;5.846;2023-05-07T07:16:53;32.50;;;25.73;;
52786;SDS011;38661;53.152;5.846;2023-05-07T07:19:19;33.15;;;24.98;;
52786;SDS011;38661;53.152;5.846;2023-05-07T07:21:45;31.85;;;25.08;;
52786;SDS011;38661;53.152;5.846;2023-05-07T07:24:13;29.23;;;23.83;;
52786;SDS011;38661;53.152;5.846;2023-05-07T07:26:44;30.88;;;26.27;;
52786;SDS011;38661;53.152;5.846;2023-05-07T07:29:10;30.27;;;24.80;;
52786;SDS011;38661;53.152;5.846;2023-05-07T07:31:35;29.88;;;25.85;;
52786;SDS011;38661;53.152;5.846;2023-05-07T07:34:01;30.38;;;24.88;;
52786;SDS011;38661;53.152;5.846;2023-05-07T07:36:27;29.52;;;25.75;;
52786;SDS011;38661;53.152;5.846;2023-05-07T07:38:53;29.90;;;23.70;;
52786;SDS011;38661;53.152;5.846;2023-05-07T07:41:19;32.67;;;25.77;;
52786;SDS011;38661;53.152;5.846;2023-05-07T07:43:45;30.17;;;23.20;;
52786;SDS011;38661;53.152;5.846;2023-05-07T07:46:11;31.83;;;25.98;;
52786;SDS011;38661;53.152;5.846;2023-05-07T07:48:37;31.02;;;26.25;;
52786;SDS011;38661;53.152;5.846;2023-05-07T07:51:03;31.77;;;26.23;;
52786;SDS011;38661;53.152;5.846;2023-05-07T07:53:29;27.98;;;24.10;;
52786;SDS011;38661;53.152;5.846;2023-05-07T07:55:55;29.30;;;24.08;;
52786;SDS011;38661;53.152;5.846;2023-05-07T07:58:21;31.48;;;24.42;;
52786;SDS011;38661;53.152;5.846;2023-05-07T08:00:47;25.30;;;20.90;;
52786;SDS011;38661;53.152;5.846;2023-05-07T08:03:13;32.20;;;24.17;;
52786;SDS011;38661;53.152;5.846;2023-05-07T08:05:41;31.30;;;26.52;;
52786;SDS011;38661;53.152;5.846;2023-05-07T08:08:07;31.23;;;24.77;;
52786;SDS011;38661;53.152;5.846;2023-05-07T08:10:33;30.88;;;24.77;;
52786;SDS011;38661;53.152;5.846;2023-05-07T08:12:59;31.10;;;24.27;;
52786;SDS011;38661;53.152;5.846;2023-05-07T08:15:25;29.88;;;24.50;;
52786;SDS011;38661;53.152;5.846;2023-05-07T08:17:51;28.73;;;23.10;;
52786;SDS011;38661;53.152;5.846;2023-05-07T08:20:17;28.23;;;24.20;;
52786;SDS011;38661;53.152;5.846;2023-05-07T08:22:43;28.90;;;24.55;;
52786;SDS011;38661;53.152;5.846;2023-05-07T08:25:08;30.33;;;26.92;;
52786;SDS011;38661;53.152;5.846;2023-05-07T08:27:34;29.77;;;23.67;;
52786;SDS011;38661;53.152;5.846;2023-05-07T08:30:00;29.02;;;23.48;;
52786;SDS011;38661;53.152;5.846;2023-05-07T08:32:26;25.02;;;20.67;;
52786;SDS011;38661;53.152;5.846;2023-05-07T08:34:52;30.02;;;24.13;;
52786;SDS011;38661;53.152;5.846;2023-05-07T08:37:18;29.45;;;24.15;;
52786;SDS011;38661;53.152;5.846;2023-05-07T08:39:44;27.85;;;24.17;;
52786;SDS011;38661;53.152;5.846;2023-05-07T08:42:10;29.05;;;24.73;;
52786;SDS011;38661;53.152;5.846;2023-05-07T08:44:38;28.27;;;23.88;;
52786;SDS011;38661;53.152;5.846;2023-05-07T08:47:06;28.90;;;24.20;;
52786;SDS011;38661;53.152;5.846;2023-05-07T08:49:32;28.67;;;22.85;;
52786;SDS011;38661;53.152;5.846;2023-05-07T08:52:02;28.63;;;24.40;;
52786;SDS011;38661;53.152;5.846;2023-05-07T08:54:27;27.65;;;24.23;;
52786;SDS011;38661;53.152;5.846;2023-05-07T08:56:57;28.42;;;24.17;;
52786;SDS011;38661;53.152;5.846;2023-05-07T08:59:22;27.05;;;22.38;;
52786;SDS011;38661;53.152;5.846;2023-05-07T09:01:48;27.35;;;23.60;;
52786;SDS011;38661;53.152;5.846;2023-05-07T09:04:14;25.23;;;20.92;;
52786;SDS011;38661;53.152;5.846;2023-05-07T09:06:40;29.58;;;23.85;;
52786;SDS011;38661;53.152;5.846;2023-05-07T09:09:07;28.80;;;24.50;;
52786;SDS011;38661;53.152;5.846;2023-05-07T09:11:33;27.40;;;22.45;;
52786;SDS011;38661;53.152;5.846;2023-05-07T09:13:58;29.38;;;24.42;;
52786;SDS011;38661;53.152;5.846;2023-05-07T09:16:28;29.73;;;24.17;;
52786;SDS011;38661;53.152;5.846;2023-05-07T09:18:57;30.10;;;24.77;;
52786;SDS011;38661;53.152;5.846;2023-05-07T09:21:25;28.30;;;24.15;;
52786;SDS011;38661;53.152;5.846;2023-05-07T09:23:52;26.08;;;21.77;;
52786;SDS011;38661;53.152;5.846;2023-05-07T09:26:23;31.27;;;24.15;;
52786;SDS011;38661;53.152;5.846;2023-05-07T09:28:49;36.25;;;24.55;;
52786;SDS011;38661;53.152;5.846;2023-05-07T09:31:16;29.42;;;24.73;;
52786;SDS011;38661;53.152;5.846;2023-05-07T09:33:42;30.45;;;24.42;;
52786;SDS011;38661;53.152;5.846;2023-05-07T09:36:08;30.00;;;23.90;;
52786;SDS011;38661;53.152;5.846;2023-05-07T09:38:36;26.63;;;22.17;;
52786;SDS011;38661;53.152;5.846;2023-05-07T09:41:03;24.30;;;21.67;;
52786;SDS011;38661;53.152;5.846;2023-05-07T09:43:34;26.58;;;23.40;;
52786;SDS011;38661;53.152;5.846;2023-05-07T09:46:02;27.67;;;23.90;;
52786;SDS011;38661;53.152;5.846;2023-05-07T09:48:36;31.52;;;25.02;;
52786;SDS011;38661;53.152;5.846;2023-05-07T09:51:06;25.98;;;23.23;;
52786;SDS011;38661;53.152;5.846;2023-05-07T09:53:43;27.23;;;20.98;;
52786;SDS011;38661;53.152;5.846;2023-05-07T09:56:11;29.48;;;25.35;;
52786;SDS011;38661;53.152;5.846;2023-05-07T09:58:38;27.42;;;23.90;;
52786;SDS011;38661;53.152;5.846;2023-05-07T10:01:06;28.77;;;22.73;;
52786;SDS011;38661;53.152;5.846;2023-05-07T10:03:35;27.75;;;24.42;;
52786;SDS011;38661;53.152;5.846;2023-05-07T10:06:01;27.08;;;22.70;;
52786;SDS011;38661;53.152;5.846;2023-05-07T10:08:28;25.05;;;22.33;;
52786;SDS011;38661;53.152;5.846;2023-05-07T10:10:55;26.88;;;23.52;;
52786;SDS011;38661;53.152;5.846;2023-05-07T10:13:21;24.95;;;20.23;;
52786;SDS011;38661;53.152;5.846;2023-05-07T10:15:47;26.25;;;22.83;;
52786;SDS011;38661;53.152;5.846;2023-05-07T10:18:14;26.58;;;21.42;;
52786;SDS011;38661;53.152;5.846;2023-05-07T10:20:41;27.58;;;24.10;;
52786;SDS011;38661;53.152;5.846;2023-05-07T10:23:12;25.13;;;22.42;;
52786;SDS011;38661;53.152;5.846;2023-05-07T10:25:42;26.40;;;23.55;;
52786;SDS011;38661;53.152;5.846;2023-05-07T10:28:08;25.17;;;22.35;;
52786;SDS011;38661;53.152;5.846;2023-05-07T10:30:40;24.25;;;21.70;;
52786;SDS011;38661;53.152;5.846;2023-05-07T10:33:15;27.23;;;23.30;;
52786;SDS011;38661;53.152;5.846;2023-05-07T10:35:45;25.80;;;23.05;;
52786;SDS011;38661;53.152;5.846;2023-05-07T10:38:12;27.98;;;22.48;;
52786;SDS011;38661;53.152;5.846;2023-05-07T10:40:38;28.27;;;23.98;;
52786;SDS011;38661;53.152;5.846;2023-05-07T10:43:05;26.77;;;23.00;;
52786;SDS011;38661;53.152;5.846;2023-05-07T10:45:31;25.58;;;22.25;;
52786;SDS011;38661;53.152;5.846;2023-05-07T10:48:07;27.23;;;23.08;;
52786;SDS011;38661;53.152;5.846;2023-05-07T10:50:36;25.83;;;22.35;;
52786;SDS011;38661;53.152;5.846;2023-05-07T10:55:50;27.40;;;22.63;;
52786;SDS011;38661;53.152;5.846;2023-05-07T10:58:33;25.20;;;21.63;;
52786;SDS011;38661;53.152;5.846;2023-05-07T11:01:00;25.73;;;21.90;;
52786;SDS011;38661;53.152;5.846;2023-05-07T11:03:27;25.58;;;22.45;;
52786;SDS011;38661;53.152;5.846;2023-05-07T11:08:57;25.90;;;22.27;;
52786;SDS011;38661;53.152;5.846;2023-05-07T11:17:06;24.58;;;21.98;;
52786;SDS011;38661;53.152;5.846;2023-05-07T11:25:04;24.35;;;21.25;;
52786;SDS011;38661;53.152;5.846;2023-05-07T11:27:31;23.77;;;21.27;;
52786;SDS011;38661;53.152;5.846;2023-05-07T11:29:57;25.80;;;23.05;;
52786;SDS011;38661;53.152;5.846;2023-05-07T11:32:24;25.80;;;21.73;;
52786;SDS011;38661;53.152;5.846;2023-05-07T11:34:53;23.67;;;20.95;;
52786;SDS011;38661;53.152;5.846;2023-05-07T11:37:20;26.40;;;23.70;;
52786;SDS011;38661;53.152;5.846;2023-05-07T11:39:46;26.42;;;21.98;;
52786;SDS011;38661;53.152;5.846;2023-05-07T11:42:28;24.60;;;21.13;;
52786;SDS011;38661;53.152;5.846;2023-05-07T11:45:02;24.25;;;21.75;;
52786;SDS011;38661;53.152;5.846;2023-05-07T11:47:30;25.05;;;21.27;;
52786;SDS011;38661;53.152;5.846;2023-05-07T11:49:56;23.65;;;21.15;;
52786;SDS011;38661;53.152;5.846;2023-05-07T11:52:26;24.90;;;21.10;;
52786;SDS011;38661;53.152;5.846;2023-05-07T11:54:53;23.85;;;21.40;;
52786;SDS011;38661;53.152;5.846;2023-05-07T11:57:20;23.65;;;21.15;;
52786;SDS011;38661;53.152;5.846;2023-05-07T11:59:46;24.90;;;22.23;;
52786;SDS011;38661;53.152;5.846;2023-05-07T12:02:13;24.55;;;22.02;;
52786;SDS011;38661;53.152;5.846;2023-05-07T12:04:40;23.50;;;21.02;;
52786;SDS011;38661;53.152;5.846;2023-05-07T12:07:11;25.20;;;21.75;;
52786;SDS011;38661;53.152;5.846;2023-05-07T12:09:37;24.75;;;21.95;;
52786;SDS011;38661;53.152;5.846;2023-05-07T12:12:04;24.75;;;20.75;;
52786;SDS011;38661;53.152;5.846;2023-05-07T12:14:30;21.98;;;19.77;;
52786;SDS011;38661;53.152;5.846;2023-05-07T12:16:56;23.23;;;20.67;;
52786;SDS011;38661;53.152;5.846;2023-05-07T12:19:22;23.48;;;21.13;;
52786;SDS011;38661;53.152;5.846;2023-05-07T12:21:48;20.88;;;18.85;;
52786;SDS011;38661;53.152;5.846;2023-05-07T12:24:14;20.83;;;18.65;;
52786;SDS011;38661;53.152;5.846;2023-05-07T12:26:40;21.02;;;18.88;;
52786;SDS011;38661;53.152;5.846;2023-05-07T12:29:06;21.92;;;19.67;;
52786;SDS011;38661;53.152;5.846;2023-05-07T12:31:32;20.33;;;18.23;;
52786;SDS011;38661;53.152;5.846;2023-05-07T12:33:58;20.58;;;18.48;;
52786;SDS011;38661;53.152;5.846;2023-05-07T12:36:24;19.73;;;17.80;;
52786;SDS011;38661;53.152;5.846;2023-05-07T12:38:50;19.90;;;17.70;;
52786;SDS011;38661;53.152;5.846;2023-05-07T12:41:16;21.05;;;18.95;;
52786;SDS011;38661;53.152;5.846;2023-05-07T12:43:43;21.40;;;19.10;;
52786;SDS011;38661;53.152;5.846;2023-05-07T12:46:09;18.38;;;16.17;;
52786;SDS011;38661;53.152;5.846;2023-05-07T12:48:42;20.00;;;17.98;;
52786;SDS011;38661;53.152;5.846;2023-05-07T12:51:10;18.55;;;16.75;;
52786;SDS011;38661;53.152;5.846;2023-05-07T12:53:42;18.35;;;16.02;;
52786;SDS011;38661;53.152;5.846;2023-05-07T12:56:08;20.85;;;18.65;;
52786;SDS011;38661;53.152;5.846;2023-05-07T12:58:34;22.42;;;20.13;;
52786;SDS011;38661;53.152;5.846;2023-05-07T13:01:03;20.65;;;18.42;;
52786;SDS011;38661;53.152;5.846;2023-05-07T13:03:31;19.60;;;17.45;;
52786;SDS011;38661;53.152;5.846;2023-05-07T13:05:59;20.50;;;17.90;;
52786;SDS011;38661;53.152;5.846;2023-05-07T13:08:30;22.50;;;20.30;;
52786;SDS011;38661;53.152;5.846;2023-05-07T13:10:57;19.67;;;17.83;;
52786;SDS011;38661;53.152;5.846;2023-05-07T13:13:25;21.33;;;19.10;;
52786;SDS011;38661;53.152;5.846;2023-05-07T13:15:51;20.08;;;18.02;;
52786;SDS011;38661;53.152;5.846;2023-05-07T13:18:17;18.35;;;16.65;;
52786;SDS011;38661;53.152;5.846;2023-05-07T13:20:42;18.90;;;17.00;;
52786;SDS011;38661;53.152;5.846;2023-05-07T13:23:08;20.13;;;18.23;;
52786;SDS011;38661;53.152;5.846;2023-05-07T13:25:34;19.60;;;17.58;;
52786;SDS011;38661;53.152;5.846;2023-05-07T13:28:00;19.55;;;17.63;;
52786;SDS011;38661;53.152;5.846;2023-05-07T13:30:25;21.23;;;17.30;;
52786;SDS011;38661;53.152;5.846;2023-05-07T13:32:55;17.75;;;15.98;;
52786;SDS011;38661;53.152;5.846;2023-05-07T13:35:21;17.65;;;16.05;;
52786;SDS011;38661;53.152;5.846;2023-05-07T13:37:47;19.70;;;17.77;;
52786;SDS011;38661;53.152;5.846;2023-05-07T13:40:17;16.50;;;14.93;;
52786;SDS011;38661;53.152;5.846;2023-05-07T13:42:43;18.02;;;16.23;;
52786;SDS011;38661;53.152;5.846;2023-05-07T13:45:09;17.48;;;15.68;;
52786;SDS011;38661;53.152;5.846;2023-05-07T13:47:35;16.63;;;15.02;;
52786;SDS011;38661;53.152;5.846;2023-05-07T13:50:01;17.23;;;15.65;;
52786;SDS011;38661;53.152;5.846;2023-05-07T13:52:27;17.45;;;14.95;;
52786;SDS011;38661;53.152;5.846;2023-05-07T13:54:52;14.93;;;13.52;;
52786;SDS011;38661;53.152;5.846;2023-05-07T13:57:20;14.05;;;12.65;;
52786;SDS011;38661;53.152;5.846;2023-05-07T13:59:45;16.45;;;14.93;;
52786;SDS011;38661;53.152;5.846;2023-05-07T14:02:11;16.02;;;14.48;;
52786;SDS011;38661;53.152;5.846;2023-05-07T14:04:37;15.98;;;14.48;;
52786;SDS011;38661;53.152;5.846;2023-05-07T14:07:06;13.32;;;11.98;;
52786;SDS011;38661;53.152;5.846;2023-05-07T14:09:43;16.90;;;15.32;;
52786;SDS011;38661;53.152;5.846;2023-05-07T14:15:25;15.40;;;13.82;;
52786;SDS011;38661;53.152;5.846;2023-05-07T14:17:54;14.43;;;13.02;;
52786;SDS011;38661;53.152;5.846;2023-05-07T14:20:20;13.65;;;12.25;;
52786;SDS011;38661;53.152;5.846;2023-05-07T14:22:48;14.80;;;12.43;;
52786;SDS011;38661;53.152;5.846;2023-05-07T14:25:14;12.18;;;10.98;;
52786;SDS011;38661;53.152;5.846;2023-05-07T14:27:40;13.10;;;11.80;;
52786;SDS011;38661;53.152;5.846;2023-05-07T14:30:06;11.65;;;10.45;;
52786;SDS011;38661;53.152;5.846;2023-05-07T14:32:32;15.55;;;12.27;;
52786;SDS011;38661;53.152;5.846;2023-05-07T14:35:02;13.20;;;11.25;;
52786;SDS011;38661;53.152;5.846;2023-05-07T14:37:33;13.57;;;12.18;;
52786;SDS011;38661;53.152;5.846;2023-05-07T14:39:59;13.25;;;11.82;;